X  Zatvori METAR podaci zračne luke     LFLC Clermont-Ferrand Auvergne Airport
Temperatura
45°F Temperatura
23°F Točka rosišta
42% Vlaga



Vjetar
5 MPS
8 KM/S
2 M/S
4 Čvorovi



30°
SSI
Trenutna situacija

Vedro Vedro
Tlak zraka 1028.92 (hPa) - 30.38 (inHg)
Vidljivost 6.2 (milje) - 10 (km)
Zračna luka
Kôd zračne luke LFLC

Lokacija: Clermont-Ferrand Auvergne Airport
Udaljenost: 100 (mi)

Metar:
LFLC 081430Z AUTO 03004KT 320V110 CAVOK 07/M05 Q1029 NOSIG

Vrijeme: 08-02-2023 14:30 CET